Time;durP1;ratioP1;P1;durP2;ratioP2;P2;SDS_P1;SDS_P2;PMS_P1;PMS_P2;Temp;Humidity;BMP_temperature;BMP_pressure;BME280_temperature;BME280_humidity;BME280_pressure;Samples;Min_cycle;Max_cycle;Signal;HPM_P1;HPM_P2
2022/06/27 00:01:13;;;;;;;0.40;0.20;;;17.90;99.90;;;;;;5069790;28;20395;-69
2022/06/27 00:03:39;;;;;;;0.40;0.20;;;17.90;99.90;;;;;;5067383;28;20443;-70
2022/06/27 00:06:04;;;;;;;0.40;0.20;;;17.80;99.90;;;;;;5069967;28;20396;-69
2022/06/27 00:08:30;;;;;;;0.40;0.20;;;17.80;99.90;;;;;;5069164;28;20478;-69
2022/06/27 00:10:56;;;;;;;0.40;0.25;;;17.70;99.90;;;;;;5069680;28;20391;-69
2022/06/27 00:13:21;;;;;;;1.00;0.90;;;17.60;99.90;;;;;;5070623;28;20388;-70
2022/06/27 00:15:47;;;;;;;0.40;0.20;;;17.50;99.90;;;;;;5069085;28;20399;-68
2022/06/27 00:18:13;;;;;;;0.40;0.30;;;17.70;99.90;;;;;;5068782;28;20380;-67
2022/06/27 00:20:38;;;;;;;0.40;0.20;;;17.70;99.90;;;;;;5069468;28;20701;-67
2022/06/27 00:23:04;;;;;;;0.40;0.20;;;17.70;99.90;;;;;;5069108;28;20426;-68
2022/06/27 00:25:30;;;;;;;0.40;0.30;;;17.70;99.90;;;;;;5068910;28;20446;-66
2022/06/27 00:27:55;;;;;;;0.40;0.20;;;17.60;99.90;;;;;;5069542;28;20407;-67
2022/06/27 00:30:21;;;;;;;0.40;0.20;;;17.60;99.90;;;;;;5069237;28;20483;-67
2022/06/27 00:32:48;;;;;;;0.40;0.20;;;17.70;99.90;;;;;;5068569;28;20478;-65
2022/06/27 00:35:14;;;;;;;0.40;0.20;;;17.60;99.90;;;;;;5069693;28;20402;-67
2022/06/27 00:37:42;;;;;;;0.40;0.20;;;17.60;99.90;;;;;;5067659;28;20427;-67
2022/06/27 00:40:08;;;;;;;0.40;0.20;;;17.70;99.90;;;;;;5069658;28;20383;-68
2022/06/27 00:42:35;;;;;;;0.40;0.30;;;17.70;99.90;;;;;;5068792;28;20388;-68
2022/06/27 00:45:01;;;;;;;0.40;0.20;;;17.70;99.90;;;;;;5069059;28;20466;-68
2022/06/27 00:47:27;;;;;;;0.40;0.30;;;17.80;99.90;;;;;;5050751;28;20824;-67
2022/06/27 00:49:53;;;;;;;0.40;0.30;;;17.70;99.90;;;;;;5069487;28;20895;-66
2022/06/27 00:52:19;;;;;;;0.40;0.30;;;17.60;99.90;;;;;;5070374;28;20402;-66
2022/06/27 00:54:46;;;;;;;0.40;0.30;;;17.60;99.90;;;;;;5071905;28;21084;-66
2022/06/27 00:57:13;;;;;;;0.40;0.20;;;17.60;99.90;;;;;;5073392;28;20387;-66
2022/06/27 00:59:39;;;;;;;0.40;0.25;;;17.60;99.90;;;;;;5071713;28;20456;-67
2022/06/27 01:02:05;;;;;;;0.40;0.30;;;17.70;99.90;;;;;;5073072;28;20865;-68
2022/06/27 01:04:34;;;;;;;0.60;0.30;;;17.60;99.90;;;;;;5071930;28;20443;-67
2022/06/27 01:06:59;;;;;;;0.40;0.20;;;17.60;99.90;;;;;;5072854;28;20464;-67
2022/06/27 01:09:25;;;;;;;1.20;0.80;;;17.80;99.90;;;;;;5072266;28;20426;-67
2022/06/27 01:11:51;;;;;;;0.40;0.20;;;17.80;99.90;;;;;;5072448;28;20388;-66
2022/06/27 01:14:18;;;;;;;0.40;0.20;;;17.70;99.90;;;;;;5072071;28;20418;-66
2022/06/27 01:16:45;;;;;;;0.40;0.20;;;17.80;99.90;;;;;;5072516;28;20376;-65
2022/06/27 01:19:13;;;;;;;0.40;0.30;;;17.80;99.90;;;;;;5073004;28;20383;-66
2022/06/27 01:21:45;;;;;;;0.40;0.20;;;17.80;99.90;;;;;;5071622;28;20395;-68
2022/06/27 01:24:10;;;;;;;0.40;0.20;;;17.70;99.90;;;;;;5072143;28;20404;-67
2022/06/27 01:26:36;;;;;;;0.40;0.20;;;17.70;99.90;;;;;;5071642;28;20414;-67
2022/06/27 01:29:03;;;;;;;0.40;0.20;;;17.60;99.90;;;;;;5072386;28;20495;-67
2022/06/27 01:31:30;;;;;;;0.40;0.20;;;17.60;99.90;;;;;;5070595;28;20395;-66
2022/06/27 01:33:57;;;;;;;0.40;0.20;;;17.70;99.90;;;;;;5072001;28;20756;-66
2022/06/27 01:39:07;;;;;;;0.40;0.20;;;17.70;99.90;;;;;;5071995;28;20816;-67
2022/06/27 01:41:32;;;;;;;0.40;0.30;;;17.70;99.90;;;;;;5070875;28;20412;-66
2022/06/27 01:43:58;;;;;;;0.40;0.20;;;17.80;99.90;;;;;;5072376;28;20458;-67
2022/06/27 01:46:24;;;;;;;0.40;0.20;;;17.80;99.90;;;;;;5071656;28;20418;-67
2022/06/27 01:48:49;;;;;;;0.40;0.20;;;17.80;99.90;;;;;;5071506;28;20395;-67
2022/06/27 01:51:15;;;;;;;0.40;0.20;;;17.80;99.90;;;;;;5071537;28;20395;-67
2022/06/27 01:53:41;;;;;;;0.40;0.20;;;17.80;99.90;;;;;;5082819;28;20867;-67
2022/06/27 01:56:07;;;;;;;0.40;0.20;;;17.80;99.90;;;;;;5071755;28;20400;-67
2022/06/27 01:58:34;;;;;;;0.40;0.20;;;17.80;99.90;;;;;;5071585;28;20423;-67
2022/06/27 02:00:59;;;;;;;0.60;0.60;;;17.80;99.90;;;;;;5052571;28;20779;-67
2022/06/27 02:03:25;;;;;;;0.40;0.20;;;17.70;99.90;;;;;;5071220;28;20396;-67
2022/06/27 02:05:54;;;;;;;0.40;0.20;;;17.70;99.90;;;;;;5071487;28;20863;-67
2022/06/27 02:08:25;;;;;;;0.40;0.20;;;17.70;99.90;;;;;;5071326;28;20392;-67
2022/06/27 02:10:50;;;;;;;0.40;0.40;;;17.70;99.90;;;;;;5071598;28;20396;-67
2022/06/27 02:13:16;;;;;;;0.40;0.20;;;17.70;99.90;;;;;;5071868;28;20479;-66
2022/06/27 02:16:01;;;;;;;0.40;0.20;;;17.70;99.90;;;;;;5070476;28;20392;-67
2022/06/27 02:18:27;;;;;;;0.40;0.20;;;17.80;99.90;;;;;;5071335;28;20776;-67
2022/06/27 02:20:53;;;;;;;0.40;0.20;;;17.80;99.90;;;;;;5071463;28;20391;-66
2022/06/27 02:23:19;;;;;;;0.40;0.20;;;17.80;99.90;;;;;;5071380;28;20467;-67
2022/06/27 02:25:45;;;;;;;0.40;0.20;;;17.70;99.90;;;;;;5070717;28;20490;-67
2022/06/27 02:28:12;;;;;;;0.40;0.30;;;17.70;99.90;;;;;;5053569;28;20756;-67
2022/06/27 02:30:38;;;;;;;0.40;0.30;;;17.70;99.90;;;;;;5070518;28;20398;-67
2022/06/27 02:33:04;;;;;;;0.60;0.60;;;17.70;99.90;;;;;;5070699;28;20833;-67
2022/06/27 02:35:31;;;;;;;0.40;0.20;;;17.80;99.90;;;;;;5069784;28;20838;-67
2022/06/27 02:37:57;;;;;;;0.40;0.20;;;17.80;99.90;;;;;;5070863;28;20452;-67
2022/06/27 02:40:23;;;;;;;0.40;0.30;;;17.70;99.90;;;;;;5070212;28;20396;-66
2022/06/27 02:42:57;;;;;;;0.80;0.60;;;17.70;99.90;;;;;;5070870;28;20396;-67
2022/06/27 02:45:23;;;;;;;0.40;0.30;;;17.70;99.90;;;;;;5070880;28;20411;-66
2022/06/27 02:47:50;;;;;;;0.40;0.20;;;17.80;99.90;;;;;;5069793;28;20868;-67
2022/06/27 02:50:16;;;;;;;0.40;0.30;;;17.80;99.90;;;;;;5070180;28;20395;-66
2022/06/27 02:52:47;;;;;;;0.40;0.30;;;17.70;99.90;;;;;;5077483;28;20529;-67
2022/06/27 02:55:15;;;;;;;0.40;0.20;;;17.70;99.90;;;;;;5070700;28;20419;-67
2022/06/27 02:57:45;;;;;;;0.40;0.20;;;17.70;99.90;;;;;;5069553;28;20414;-67
2022/06/27 03:00:12;;;;;;;0.40;0.20;;;17.70;99.90;;;;;;5069979;28;20967;-67
2022/06/27 03:02:39;;;;;;;0.40;0.30;;;17.80;99.90;;;;;;5069561;28;20740;-67
2022/06/27 03:05:05;;;;;;;0.40;0.30;;;17.80;99.90;;;;;;5069166;28;20418;-67
2022/06/27 03:07:38;;;;;;;0.40;0.30;;;17.70;99.90;;;;;;5069388;28;20890;-67
2022/06/27 03:10:05;;;;;;;0.40;0.30;;;17.80;99.90;;;;;;5070405;28;20395;-67
2022/06/27 03:12:30;;;;;;;0.40;0.20;;;17.80;99.90;;;;;;5069455;28;20388;-67
2022/06/27 03:14:56;;;;;;;0.40;0.20;;;17.70;99.90;;;;;;5070030;28;20460;-66
2022/06/27 03:17:22;;;;;;;0.40;0.20;;;17.80;99.90;;;;;;5070070;28;20395;-66
2022/06/27 03:19:50;;;;;;;0.40;0.20;;;17.70;99.90;;;;;;5069276;28;20398;-66
2022/06/27 03:22:16;;;;;;;0.40;0.20;;;17.60;99.90;;;;;;5069733;28;20430;-66
2022/06/27 03:24:42;;;;;;;0.40;0.20;;;17.60;99.90;;;;;;5069376;28;20760;-66
2022/06/27 03:27:09;;;;;;;0.40;0.20;;;17.60;99.90;;;;;;5063723;28;20416;-66
2022/06/27 03:29:36;;;;;;;0.40;0.20;;;17.70;99.90;;;;;;5068996;28;20453;-66
2022/06/27 03:32:03;;;;;;;0.40;0.30;;;17.60;99.90;;;;;;5056398;28;20759;-66
2022/06/27 03:34:29;;;;;;;0.40;0.30;;;17.60;99.90;;;;;;5069150;28;20395;-66
2022/06/27 03:36:55;;;;;;;0.40;0.20;;;17.70;99.90;;;;;;5070680;28;20368;-66
2022/06/27 03:39:21;;;;;;;0.40;0.20;;;17.70;99.90;;;;;;5070071;28;20398;-66
2022/06/27 03:41:47;;;;;;;0.40;0.30;;;17.60;99.90;;;;;;5069346;28;20388;-66
2022/06/27 03:44:13;;;;;;;0.40;0.20;;;17.60;99.90;;;;;;5070147;28;20741;-66
2022/06/27 03:46:39;;;;;;;0.40;0.20;;;17.60;99.90;;;;;;5068935;28;20415;-66
2022/06/27 03:51:50;;;;;;;0.40;0.20;;;17.60;99.90;;;;;;5069072;28;20482;-66
2022/06/27 03:54:16;;;;;;;0.40;0.20;;;17.70;99.90;;;;;;5069920;28;20777;-66
2022/06/27 03:56:42;;;;;;;0.40;0.20;;;17.70;99.90;;;;;;5069683;28;20408;-66
2022/06/27 03:59:08;;;;;;;0.40;0.20;;;17.70;99.90;;;;;;5070496;28;20740;-66
2022/06/27 04:01:34;;;;;;;0.40;0.25;;;17.70;99.90;;;;;;5068614;28;20394;-66
2022/06/27 04:03:59;;;;;;;0.40;0.20;;;17.70;99.90;;;;;;5070370;28;20376;-66
2022/06/27 04:06:25;;;;;;;0.40;0.20;;;17.70;99.90;;;;;;5057227;28;20797;-66
2022/06/27 04:08:51;;;;;;;0.40;0.20;;;17.80;99.90;;;;;;5049354;28;20389;-66
2022/06/27 04:11:16;;;;;;;0.40;0.20;;;17.80;99.90;;;;;;5067855;28;20911;-66
2022/06/27 04:13:42;;;;;;;0.40;0.20;;;17.70;99.90;;;;;;5068875;28;20395;-66
2022/06/27 04:16:08;;;;;;;0.40;0.20;;;17.70;99.90;;;;;;5070040;28;20399;-66
2022/06/27 04:18:34;;;;;;;0.40;0.20;;;17.70;99.90;;;;;;5068327;28;20461;-66
2022/06/27 04:21:00;;;;;;;0.40;0.20;;;17.70;99.90;;;;;;5070219;28;20396;-66
2022/06/27 04:23:25;;;;;;;0.40;0.20;;;17.70;99.90;;;;;;5068982;28;20800;-66
2022/06/27 04:25:52;;;;;;;0.40;0.20;;;17.70;99.90;;;;;;5070119;28;20415;-66
2022/06/27 04:28:18;;;;;;;0.40;0.20;;;17.70;99.90;;;;;;5073975;28;20434;-66
2022/06/27 04:30:44;;;;;;;0.40;0.20;;;17.70;99.90;;;;;;5071835;28;20420;-67
2022/06/27 04:33:11;;;;;;;0.40;0.20;;;17.70;99.90;;;;;;5073392;28;20419;-66
2022/06/27 04:35:39;;;;;;;0.40;0.20;;;17.70;99.90;;;;;;5072854;28;20395;-66
2022/06/27 04:38:05;;;;;;;0.40;0.20;;;17.70;99.90;;;;;;5073635;28;20399;-67
2022/06/27 04:40:31;;;;;;;0.40;0.20;;;17.70;99.90;;;;;;5072542;28;20809;-66
2022/06/27 04:42:56;;;;;;;0.40;0.20;;;17.70;99.90;;;;;;5072091;28;20482;-67
2022/06/27 04:45:23;;;;;;;0.40;0.20;;;17.70;99.90;;;;;;5072233;28;20486;-67
2022/06/27 04:47:49;;;;;;;0.40;0.20;;;17.70;99.90;;;;;;5073313;28;20376;-66
2022/06/27 04:50:18;;;;;;;0.40;0.30;;;17.70;99.90;;;;;;5072362;28;20392;-66
2022/06/27 04:52:44;;;;;;;0.60;0.60;;;17.60;99.90;;;;;;5068121;28;20391;-66
2022/06/27 04:55:12;;;;;;;0.40;0.30;;;17.70;99.90;;;;;;5072710;28;20407;-66
2022/06/27 04:57:40;;;;;;;0.40;0.30;;;17.70;99.90;;;;;;5072395;28;20395;-66
2022/06/27 05:00:08;;;;;;;0.40;0.20;;;17.60;99.90;;;;;;5072609;28;20418;-65
2022/06/27 05:02:35;;;;;;;0.40;0.30;;;17.70;99.90;;;;;;5071964;28;20424;-65
2022/06/27 05:05:02;;;;;;;0.40;0.20;;;17.80;99.90;;;;;;5072937;28;20894;-65
2022/06/27 05:07:29;;;;;;;0.40;0.20;;;17.70;99.90;;;;;;5072911;28;20384;-65
2022/06/27 05:09:56;;;;;;;0.40;0.20;;;17.80;99.90;;;;;;5073106;28;20391;-66
2022/06/27 05:12:26;;;;;;;0.40;0.20;;;17.80;99.90;;;;;;5071979;28;20407;-66
2022/06/27 05:14:54;;;;;;;0.40;0.30;;;17.80;99.90;;;;;;5072324;28;20414;-67
2022/06/27 05:17:21;;;;;;;0.40;0.20;;;17.80;99.90;;;;;;5073714;28;20396;-65
2022/06/27 05:19:47;;;;;;;0.40;0.20;;;17.80;99.90;;;;;;5072350;28;20512;-65
2022/06/27 05:22:12;;;;;;;0.50;0.50;;;17.80;99.90;;;;;;5072078;28;20430;-66
2022/06/27 05:24:38;;;;;;;0.40;0.20;;;17.80;99.90;;;;;;5071912;28;20400;-66
2022/06/27 05:27:04;;;;;;;0.40;0.30;;;17.80;99.90;;;;;;5073187;28;20388;-66
2022/06/27 05:29:30;;;;;;;0.40;0.30;;;17.80;99.90;;;;;;5072083;28;20384;-67
2022/06/27 05:31:56;;;;;;;0.40;0.20;;;17.90;99.90;;;;;;5072631;28;20736;-67
2022/06/27 05:34:22;;;;;;;0.40;0.30;;;17.90;99.90;;;;;;5073071;28;20391;-67
2022/06/27 05:36:48;;;;;;;0.40;0.30;;;18.00;99.90;;;;;;5072362;28;20938;-66
2022/06/27 05:39:14;;;;;;;0.40;0.30;;;18.10;99.90;;;;;;5071928;28;20430;-67
2022/06/27 05:41:41;;;;;;;0.40;0.30;;;18.10;99.90;;;;;;5071011;28;20694;-67
2022/06/27 05:44:07;;;;;;;0.40;0.40;;;18.20;99.90;;;;;;5072743;28;20391;-67
2022/06/27 05:46:33;;;;;;;0.40;0.30;;;18.10;99.90;;;;;;5071818;28;20425;-67
2022/06/27 05:49:01;;;;;;;0.40;0.30;;;18.10;99.90;;;;;;5072571;28;20419;-67
2022/06/27 05:51:28;;;;;;;0.40;0.20;;;18.10;99.90;;;;;;5072731;28;20384;-66
2022/06/27 05:53:56;;;;;;;0.40;0.20;;;18.10;99.90;;;;;;5092716;28;20386;-66
2022/06/27 05:56:24;;;;;;;0.40;0.20;;;18.10;99.90;;;;;;5092394;28;20902;-66
2022/06/27 05:58:50;;;;;;;0.40;0.30;;;18.00;99.90;;;;;;5091909;28;20378;-66
2022/06/27 06:01:17;;;;;;;0.40;0.30;;;18.10;99.90;;;;;;5092313;28;20440;-66
2022/06/27 06:03:43;;;;;;;0.40;0.20;;;18.10;99.90;;;;;;5091966;28;20423;-66
2022/06/27 06:06:09;;;;;;;0.70;0.50;;;18.10;99.90;;;;;;5092170;28;20676;-66
2022/06/27 06:08:36;;;;;;;0.40;0.20;;;18.10;99.90;;;;;;5091709;28;20378;-66
2022/06/27 06:11:02;;;;;;;0.70;0.70;;;18.10;99.90;;;;;;5092592;28;20378;-66
2022/06/27 06:13:29;;;;;;;0.40;0.30;;;18.20;99.90;;;;;;5091497;28;20388;-65
2022/06/27 06:15:57;;;;;;;0.40;0.30;;;18.30;99.90;;;;;;5092376;28;20418;-66
2022/06/27 06:18:23;;;;;;;0.40;0.20;;;18.30;99.90;;;;;;5092207;28;20374;-66
2022/06/27 06:20:49;;;;;;;1.10;1.00;;;18.40;99.90;;;;;;5091284;28;20436;-66
2022/06/27 06:23:15;;;;;;;0.40;0.22;;;18.40;99.90;;;;;;5092190;28;20436;-66
2022/06/27 06:25:43;;;;;;;0.40;0.30;;;18.40;99.90;;;;;;5091308;28;20427;-66
2022/06/27 06:28:09;;;;;;;0.40;0.20;;;18.50;99.90;;;;;;5090644;28;20383;-66
2022/06/27 06:30:35;;;;;;;0.40;0.20;;;18.50;99.90;;;;;;5070338;28;20475;-66
2022/06/27 06:33:04;;;;;;;0.40;0.30;;;18.50;99.90;;;;;;5071668;28;20831;-66
2022/06/27 06:35:31;;;;;;;0.40;0.28;;;18.70;99.90;;;;;;5070695;28;20384;-66
2022/06/27 06:37:58;;;;;;;0.40;0.30;;;18.50;99.90;;;;;;5071455;28;20376;-66
2022/06/27 06:40:24;;;;;;;0.40;0.30;;;18.50;99.90;;;;;;5071231;28;20384;-66
2022/06/27 06:42:51;;;;;;;0.40;0.25;;;18.50;99.90;;;;;;5070758;28;20388;-65
2022/06/27 06:45:16;;;;;;;0.40;0.30;;;18.50;99.90;;;;;;5071569;28;20392;-65
2022/06/27 06:47:50;;;;;;;0.40;0.30;;;18.40;99.90;;;;;;5070619;28;20376;-65
2022/06/27 06:50:20;;;;;;;0.40;0.20;;;18.40;99.90;;;;;;5070434;28;20424;-66
2022/06/27 06:52:50;;;;;;;0.40;0.30;;;18.30;99.90;;;;;;5070665;28;20455;-65
2022/06/27 06:55:24;;;;;;;0.40;0.30;;;18.30;99.90;;;;;;5071022;28;20380;-65
2022/06/27 06:57:50;;;;;;;0.40;0.20;;;18.30;99.90;;;;;;5070805;28;20537;-65
2022/06/27 07:00:17;;;;;;;0.40;0.30;;;18.30;99.90;;;;;;5070875;28;20438;-65
2022/06/27 07:02:43;;;;;;;0.40;0.30;;;18.30;99.90;;;;;;5069904;28;20759;-65
2022/06/27 07:05:12;;;;;;;0.40;0.40;;;18.30;99.90;;;;;;5071041;28;20947;-65
2022/06/27 07:07:44;;;;;;;0.40;0.20;;;18.40;99.90;;;;;;5070440;28;20394;-65
2022/06/27 07:10:14;;;;;;;0.40;0.30;;;18.40;99.90;;;;;;5070485;28;20449;-66
2022/06/27 07:12:42;;;;;;;0.40;0.20;;;18.50;99.90;;;;;;5070380;28;20391;-65
2022/06/27 07:15:12;;;;;;;0.50;0.50;;;18.50;99.90;;;;;;5070900;28;20383;-66
2022/06/27 07:17:42;;;;;;;0.40;0.20;;;18.60;99.90;;;;;;5069038;28;20798;-66
2022/06/27 07:20:10;;;;;;;0.40;0.20;;;18.60;99.90;;;;;;5064071;28;20420;-66
2022/06/27 07:22:35;;;;;;;0.40;0.20;;;18.70;99.90;;;;;;5060734;28;20372;-65
2022/06/27 07:25:01;;;;;;;0.40;0.20;;;18.80;99.90;;;;;;5066842;28;20415;-66
2022/06/27 07:27:27;;;;;;;0.40;0.40;;;18.80;99.90;;;;;;5068614;28;20407;-66
2022/06/27 07:29:52;;;;;;;0.60;0.60;;;18.80;99.90;;;;;;5061393;28;20407;-66
2022/06/27 07:32:18;;;;;;;0.40;0.20;;;18.80;99.90;;;;;;5062050;28;20454;-66
2022/06/27 07:34:43;;;;;;;0.40;0.30;;;18.70;99.90;;;;;;5054988;28;20397;-66
2022/06/27 07:37:09;;;;;;;0.40;0.30;;;18.70;99.90;;;;;;5063875;28;20742;-66
2022/06/27 07:39:35;;;;;;;0.50;0.50;;;18.70;99.90;;;;;;5068728;28;20408;-66
2022/06/27 07:42:01;;;;;;;0.40;0.20;;;18.60;99.90;;;;;;5062292;28;20506;-66
2022/06/27 07:44:27;;;;;;;0.40;0.30;;;18.60;99.90;;;;;;5053182;28;20463;-66
2022/06/27 07:46:53;;;;;;;0.40;0.20;;;18.70;99.90;;;;;;5050422;28;20373;-66
2022/06/27 07:49:19;;;;;;;0.40;0.27;;;18.70;99.90;;;;;;5051038;28;20915;-66
2022/06/27 07:51:47;;;;;;;0.40;0.30;;;18.80;99.90;;;;;;5052561;28;20399;-66
2022/06/27 07:54:13;;;;;;;0.90;0.90;;;18.80;99.90;;;;;;5070445;28;20852;-66
2022/06/27 07:56:40;;;;;;;0.40;0.20;;;18.90;99.90;;;;;;5069705;28;20492;-66
2022/06/27 07:59:06;;;;;;;2.42;2.22;;;19.00;99.90;;;;;;5069851;28;20902;-66
2022/06/27 08:01:32;;;;;;;0.40;0.30;;;19.00;99.90;;;;;;5060263;28;20415;-66
2022/06/27 08:03:58;;;;;;;0.40;0.20;;;19.00;99.90;;;;;;5074325;28;20437;-66
2022/06/27 08:06:27;;;;;;;0.40;0.20;;;18.80;99.90;;;;;;5059972;28;20412;-66
2022/06/27 08:08:59;;;;;;;0.40;0.22;;;18.80;99.90;;;;;;5063193;28;20389;-66
2022/06/27 08:11:27;;;;;;;0.40;0.20;;;18.80;99.90;;;;;;5054814;28;20412;-66
2022/06/27 08:13:57;;;;;;;0.40;0.20;;;18.90;99.90;;;;;;5053608;28;20386;-67
2022/06/27 08:16:24;;;;;;;0.40;0.30;;;19.00;99.90;;;;;;5054420;28;20890;-66
2022/06/27 08:18:52;;;;;;;0.40;0.30;;;19.00;99.90;;;;;;5053649;28;20385;-66
2022/06/27 08:21:27;;;;;;;0.40;0.20;;;19.20;99.90;;;;;;5059137;28;20395;-66
2022/06/27 08:23:58;;;;;;;0.40;0.30;;;19.30;99.90;;;;;;5054209;28;20385;-66
2022/06/27 08:26:25;;;;;;;0.40;0.20;;;19.30;99.90;;;;;;5054045;28;20408;-66
2022/06/27 08:28:52;;;;;;;0.40;0.25;;;19.20;99.90;;;;;;5053658;28;20412;-66
2022/06/27 08:31:19;;;;;;;0.60;0.60;;;19.10;99.90;;;;;;5053926;28;20474;-66
2022/06/27 08:33:47;;;;;;;0.40;0.20;;;19.10;99.90;;;;;;5059756;28;20547;-67
2022/06/27 08:36:15;;;;;;;0.40;0.40;;;19.20;99.90;;;;;;5054252;28;20404;-66
2022/06/27 08:38:52;;;;;;;0.40;0.28;;;19.10;99.90;;;;;;5060634;28;20385;-67
2022/06/27 08:41:22;;;;;;;0.40;0.30;;;19.30;99.90;;;;;;5069891;28;20476;-67
2022/06/27 08:43:52;;;;;;;0.40;0.20;;;19.30;99.90;;;;;;5065284;28;20395;-67
2022/06/27 08:46:18;;;;;;;0.40;0.20;;;19.40;99.90;;;;;;5060263;28;20403;-67
2022/06/27 08:48:47;;;;;;;0.40;0.20;;;19.40;99.90;;;;;;5072953;28;20399;-67
2022/06/27 08:51:13;;;;;;;0.40;0.30;;;19.50;99.90;;;;;;5073875;28;20387;-67
2022/06/27 08:53:39;;;;;;;0.40;0.20;;;19.80;99.90;;;;;;5065376;28;20480;-67
2022/06/27 08:56:10;;;;;;;0.40;0.30;;;19.80;99.90;;;;;;5066125;28;22401;-67
2022/06/27 08:58:37;;;;;;;0.40;0.20;;;19.80;99.90;;;;;;5072290;28;20471;-67
2022/06/27 09:01:04;;;;;;;0.40;0.20;;;19.80;99.90;;;;;;5053922;28;20421;-69
2022/06/27 09:03:30;;;;;;;0.40;0.20;;;20.00;99.90;;;;;;5062114;28;20461;-68
2022/06/27 09:06:01;;;;;;;0.40;0.20;;;20.30;99.90;;;;;;5064725;28;20428;-69
2022/06/27 09:08:33;;;;;;;0.40;0.20;;;20.30;99.90;;;;;;5062771;28;20901;-69
2022/06/27 09:11:00;;;;;;;0.40;0.28;;;20.10;99.90;;;;;;5059922;28;20865;-69
2022/06/27 09:13:27;;;;;;;0.40;0.40;;;20.10;99.90;;;;;;5065961;28;20948;-67
2022/06/27 09:16:02;;;;;;;0.70;0.70;;;20.10;99.90;;;;;;5072007;28;20396;-68
2022/06/27 09:18:34;;;;;;;1.50;1.40;;;20.10;99.90;;;;;;5072063;28;20495;-68
2022/06/27 09:21:05;;;;;;;0.40;0.20;;;19.90;99.90;;;;;;5073026;28;20799;-68
2022/06/27 09:23:49;;;;;;;0.40;0.20;;;20.00;99.90;;;;;;5071525;28;20931;-68
2022/06/27 09:26:20;;;;;;;0.40;0.20;;;19.90;99.90;;;;;;5072762;28;20396;-68
2022/06/27 09:28:56;;;;;;;0.40;0.20;;;20.00;99.90;;;;;;5071809;28;20384;-67
2022/06/27 09:31:30;;;;;;;0.40;0.20;;;20.00;99.90;;;;;;5069753;28;20407;-67
2022/06/27 09:34:19;;;;;;;0.70;0.70;;;20.10;99.90;;;;;;5064046;28;20507;-67
2022/06/27 09:36:49;;;;;;;0.40;0.20;;;20.00;99.90;;;;;;5057159;28;20499;-69
2022/06/27 09:39:36;;;;;;;0.40;0.30;;;20.00;99.90;;;;;;5061565;28;20429;-69
2022/06/27 09:42:11;;;;;;;0.40;0.20;;;20.00;99.90;;;;;;5056138;28;20885;-69
2022/06/27 09:44:41;;;;;;;0.40;0.30;;;19.90;99.90;;;;;;5051241;28;20397;-69
2022/06/27 09:47:13;;;;;;;0.40;0.20;;;20.00;99.90;;;;;;5051904;28;20392;-70
2022/06/27 09:49:41;;;;;;;0.40;0.30;;;20.10;99.90;;;;;;5051538;28;20787;-70
2022/06/27 09:52:09;;;;;;;0.40;0.30;;;20.10;99.90;;;;;;5052447;28;20389;-70
2022/06/27 09:54:37;;;;;;;0.40;0.30;;;20.30;99.90;;;;;;5051772;28;20439;-70
2022/06/27 09:57:04;;;;;;;0.40;0.30;;;20.30;99.90;;;;;;5052018;28;20687;-69
2022/06/27 09:59:31;;;;;;;0.40;0.20;;;20.30;99.90;;;;;;5051303;28;20428;-68
2022/06/27 10:01:58;;;;;;;0.40;0.30;;;20.30;99.90;;;;;;5034198;28;20382;-69
2022/06/27 10:04:30;;;;;;;0.40;0.20;;;20.30;99.90;;;;;;5052097;28;20424;-71
2022/06/27 10:06:58;;;;;;;0.40;0.30;;;20.40;99.90;;;;;;5052272;28;20417;-69
2022/06/27 10:09:25;;;;;;;0.40;0.20;;;20.50;99.90;;;;;;5052306;28;20461;-69
2022/06/27 10:12:25;;;;;;;0.40;0.30;;;20.60;99.90;;;;;;5054724;28;20412;-70
2022/06/27 10:15:10;;;;;;;0.40;0.30;;;20.50;99.90;;;;;;5065903;28;20406;-71
2022/06/27 10:17:55;;;;;;;0.40;0.20;;;20.80;99.90;;;;;;5062400;28;20430;-71
2022/06/27 10:20:29;;;;;;;0.40;0.30;;;20.80;99.90;;;;;;5053499;28;20421;-71
2022/06/27 10:23:13;;;;;;;0.40;0.20;;;20.90;99.90;;;;;;5060046;28;20409;-72
2022/06/27 10:25:44;;;;;;;0.40;0.30;;;21.10;99.90;;;;;;5051015;28;20413;-72
2022/06/27 10:28:10;;;;;;;0.40;0.20;;;21.10;99.90;;;;;;5054302;28;20804;-71
2022/06/27 10:30:43;;;;;;;0.40;0.30;;;21.20;99.90;;;;;;5060898;28;20401;-70
2022/06/27 10:33:18;;;;;;;0.40;0.20;;;21.30;99.90;;;;;;5068095;28;20427;-70
2022/06/27 10:35:56;;;;;;;0.40;0.20;;;21.50;99.90;;;;;;5061663;28;20401;-70
2022/06/27 10:38:38;;;;;;;0.40;0.20;;;21.70;99.90;;;;;;5058310;28;20403;-69
2022/06/27 10:41:30;;;;;;;0.40;0.20;;;21.90;99.90;;;;;;5060628;28;20373;-70
2022/06/27 10:43:59;;;;;;;0.40;0.30;;;21.80;99.90;;;;;;5058564;28;20478;-69
2022/06/27 10:46:24;;;;;;;2.70;2.58;;;21.70;99.90;;;;;;5059789;28;20411;-69
2022/06/27 10:48:51;;;;;;;0.40;0.20;;;21.70;99.90;;;;;;5058121;28;20416;-71
2022/06/27 10:51:26;;;;;;;3.20;1.80;;;21.60;99.90;;;;;;5057244;28;20877;-69
2022/06/27 10:54:12;;;;;;;0.40;0.30;;;21.60;99.90;;;;;;5061590;28;20378;-71
2022/06/27 10:56:58;;;;;;;0.40;0.20;;;21.60;99.90;;;;;;5061634;28;20510;-68
2022/06/27 10:59:25;;;;;;;0.40;0.30;;;21.60;99.90;;;;;;5060657;28;20567;-69
2022/06/27 11:01:51;;;;;;;0.40;0.30;;;21.80;99.90;;;;;;5031493;28;20919;-71
2022/06/27 11:04:34;;;;;;;0.40;0.20;;;21.80;99.90;;;;;;5050606;28;20496;-68
2022/06/27 11:07:07;;;;;;;0.40;0.30;;;21.80;99.90;;;;;;5050616;28;20393;-67
2022/06/27 11:09:45;;;;;;;0.40;0.20;;;21.90;99.90;;;;;;5050542;28;20384;-68
2022/06/27 11:12:20;;;;;;;0.40;0.30;;;22.20;99.90;;;;;;5050978;28;20416;-70
2022/06/27 11:14:58;;;;;;;0.40;0.30;;;22.30;99.90;;;;;;5050160;28;20574;-68
2022/06/27 11:17:26;;;;;;;0.40;0.20;;;22.20;99.90;;;;;;5050954;28;20381;-71
2022/06/27 11:20:23;;;;;;;0.40;0.20;;;22.30;99.90;;;;;;5050175;28;20413;-67
2022/06/27 11:22:54;;;;;;;0.40;0.20;;;22.30;99.90;;;;;;5050269;28;20373;-70
2022/06/27 11:25:22;;;;;;;0.40;0.30;;;22.50;99.90;;;;;;5050725;28;20425;-69
2022/06/27 11:27:55;;;;;;;0.40;0.20;;;22.60;99.90;;;;;;5049749;28;20468;-70
2022/06/27 11:33:34;;;;;;;0.40;0.20;;;22.30;99.90;;;;;;5049702;28;20436;-69
2022/06/27 11:36:00;;;;;;;0.40;0.20;;;22.30;99.90;;;;;;5050128;28;20385;-68
2022/06/27 11:38:28;;;;;;;0.40;0.20;;;22.40;99.90;;;;;;5050648;28;20388;-69
2022/06/27 11:41:09;;;;;;;0.40;0.30;;;22.00;99.90;;;;;;5049946;28;20877;-69
2022/06/27 11:43:51;;;;;;;0.40;0.20;;;21.90;99.90;;;;;;5049579;28;20447;-66
2022/06/27 11:46:45;;;;;;;0.40;0.20;;;21.80;99.90;;;;;;5050597;28;20726;-67
2022/06/27 11:49:12;;;;;;;0.40;0.20;;;22.00;99.90;;;;;;5044261;28;20401;-68
2022/06/27 11:51:49;;;;;;;0.40;0.20;;;22.40;99.90;;;;;;5051581;28;20374;-67
2022/06/27 11:54:18;;;;;;;0.40;0.30;;;22.70;99.90;;;;;;5070299;28;20388;-68
2022/06/27 11:56:49;;;;;;;0.40;0.20;;;23.00;99.90;;;;;;5069595;28;20396;-68
2022/06/27 11:59:18;;;;;;;0.40;0.30;;;23.30;99.90;;;;;;5070359;28;20395;-71
2022/06/27 12:01:54;;;;;;;0.40;0.30;;;23.80;99.90;;;;;;5069150;28;20414;-67
2022/06/27 12:04:26;;;;;;;0.40;0.20;;;24.50;99.90;;;;;;5070347;28;20388;-67
2022/06/27 12:07:05;;;;;;;0.40;0.20;;;24.60;99.90;;;;;;5069934;28;20437;-67
2022/06/27 12:09:45;;;;;;;0.40;0.20;;;24.60;99.90;;;;;;5069192;28;21006;-66
2022/06/27 12:12:18;;;;;;;0.40;0.20;;;23.70;99.90;;;;;;5070424;28;20728;-66
2022/06/27 12:14:46;;;;;;;0.40;0.20;;;23.20;99.90;;;;;;5069757;28;20824;-67
2022/06/27 12:17:11;;;;;;;0.40;0.20;;;23.00;99.90;;;;;;5070347;28;20398;-67
2022/06/27 12:19:37;;;;;;;0.40;0.20;;;22.70;99.90;;;;;;5069254;28;20415;-66
2022/06/27 12:22:03;;;;;;;0.40;0.20;;;22.50;99.90;;;;;;5070045;28;20761;-66
2022/06/27 12:24:30;;;;;;;0.40;0.20;;;22.60;99.90;;;;;;5069659;28;20439;-67
2022/06/27 12:26:56;;;;;;;0.40;0.20;;;22.60;99.90;;;;;;5051821;28;20414;-67
2022/06/27 12:29:22;;;;;;;0.40;0.20;;;22.70;99.90;;;;;;5068256;28;20507;-66
2022/06/27 12:31:48;;;;;;;0.50;0.50;;;22.50;99.90;;;;;;5068824;28;20402;-70
2022/06/27 12:34:14;;;;;;;0.40;0.20;;;22.70;99.90;;;;;;5068588;28;20415;-67
2022/06/27 12:36:40;;;;;;;0.40;0.20;;;22.50;99.90;;;;;;5068301;28;20476;-67
2022/06/27 12:39:07;;;;;;;0.40;0.20;;;22.70;99.90;;;;;;5068683;28;20479;-67
2022/06/27 12:41:34;;;;;;;0.40;0.20;;;22.50;99.90;;;;;;5068247;28;20396;-66
2022/06/27 12:44:00;;;;;;;0.40;0.30;;;22.20;99.90;;;;;;5066676;28;20384;-67
2022/06/27 12:46:26;;;;;;;0.40;0.30;;;22.20;99.90;;;;;;5067665;28;20499;-67
2022/06/27 12:48:55;;;;;;;0.40;0.20;;;22.20;99.90;;;;;;5071634;28;20883;-68
2022/06/27 12:51:21;;;;;;;0.40;0.20;;;22.30;99.90;;;;;;5071218;28;20495;-71
2022/06/27 12:53:47;;;;;;;0.40;0.20;;;22.30;99.90;;;;;;5056254;28;20393;-67
2022/06/27 12:56:14;;;;;;;0.40;0.28;;;22.30;99.90;;;;;;5066734;28;20438;-67
2022/06/27 12:58:39;;;;;;;0.40;0.20;;;22.70;99.90;;;;;;5072660;28;20407;-67
2022/06/27 13:01:05;;;;;;;0.40;0.20;;;22.90;99.90;;;;;;5070236;28;20392;-67
2022/06/27 13:03:31;;;;;;;0.40;0.30;;;23.00;99.90;;;;;;5072015;28;20386;-66